KOCH

Details ICAO KOCH
Name A L Mangham JR RGNL
Region United States
Timezone America/Chicago (UTC-6.0)
Plans Departing 5
Arriving 6
Stats Elevation 355 ft / 108 m (AMSL)
Location 31.577770° -94.710129°
Runways 1
Magnetic Variation 2.032° E
Sunrise 2017-12-12 13:10:33 UTC / 2017-12-12 07:10:33 Local
Sunset 2017-12-12 23:17:42 UTC / 2017-12-12 17:17:42 Local
Advertisement - Login to hide

Runways

ID Width Length Bearing (true) Bearing (mag) Surface Threshold Offset Overrun Length
18 75 ft / 23 m 5,016 ft / 1,529 m 184.47° 182.44° Asphalt 0 ft / 0 m 0 ft / 0 m
36 75 ft / 23 m 5,016 ft / 1,529 m 4.47° 2.44° Asphalt 0 ft / 0 m 0 ft / 0 m

Approach Navaids

Runway Type Ident Frequency Range Bearing (true) Bearing (mag) Slope Elevation
36 Localiser IOCH 111.50 MHz 18 nm / 33 km 4.49° 2.46° - 355 ft / 108 m (AMSL)
36 Glidescope IOCH 111.50 MHz 10 nm / 19 km 4.47° 2.44° 3.00° 337 ft / 103 m (AMSL)
36 DME IOCH 111.50 MHz 18 nm / 33 km - - - 355 ft / 108 m (AMSL)

Map

Weather


0- 5 10 15 20 25 30 35+ Temperature / ° C

Clouds and Precipitation
Forecast for 2017-12-12 12:00 UTC. Updated 2 hours ago

Ground ~20,000 ft ~40,000 ft Winds

METAR

KOCH 120756Z AUTO 00000KT 10SM CLR 06/02 A3018 RMK AO2 SLP223 T00560017

TAF

Not found

Frequencies

Recorded 135.62 MHz AWOS 3
Unicom 123.00 MHz CTAF/UNICOM
Warning: Do not use this data for real-world aviation or navigation. No guarantee of current accuracy is given.